PWSweather.com
Personal Weather Stations
Station Observations
TMASSANO
Herbertsville, Brick, NJ 08724

HerbertsvilleBrick, NJ 08724

Lat: 40.098, Lon: -74.096

Elevation: 16

Station Type: WS 2800

Latest ConditionsUpdated 6:38:47 PM EST Saturday, Dec 20, 2014
Currently Today's Max Today's Min Today's Average
Temperature 32.0°F0.0°C 32.4°F0.2°C 31.1°F-0.5°C 32.2°F0.1°C
Dew Point 24.0°F-4.4°C 24.1°F-4.4°C 22.8°F-5.1°C 23.8°F-4.6°C
Winds 1.1 mph NNW1.8 kmh NNW 92.2 mph N148.4 kmh N - 4.7 mph 7.6 kmh
Wind Gusts 82.9 mph133.4 kmh 92.2 mph148.4 kmh - -
Humidity 72% 72% 70% 71%
Pressure 30.28 in1025.4 mb 30.28 in1025.4 mb 30.27 in1025.1 mb -
Hour Temp Dew Point Humidity Winds Wind Gusts Pressure Precip Precip Rate Daily Precip Total
06:38 PM 32.0°F0.0°C 24.0°F-4.4°C 72% 1.7 mph NNE2.7 kmh NNE 82.9 mph133.4 kmh 30.28 in1025.4 mb 0.00 in0.0 mm 0.00 in/hr0.0 mm/hr 0.00 in0.0 mm
06:37 PM 32.0°F0.0°C 24.0°F-4.4°C 72% 1.7 mph NNE2.7 kmh NNE 82.9 mph133.4 kmh 30.28 in1025.4 mb 0.00 in0.0 mm 0.00 in/hr0.0 mm/hr 0.00 in0.0 mm
06:36 PM 32.0°F0.0°C 24.0°F-4.4°C 72% Calm Calm 82.9 mph133.4 kmh 30.28 in1025.4 mb 0.00 in0.0 mm 0.00 in/hr0.0 mm/hr 0.00 in0.0 mm
06:35 PM 32.0°F0.0°C 24.0°F-4.4°C 72% 1.7 mph WNW2.7 kmh WNW 82.9 mph133.4 kmh 30.28 in1025.4 mb 0.00 in0.0 mm 0.00 in/hr0.0 mm/hr 0.00 in0.0 mm
06:34 PM 32.0°F0.0°C 23.7°F-4.6°C 71% Calm Calm 82.9 mph133.4 kmh 30.28 in1025.4 mb 0.00 in0.0 mm 0.00 in/hr0.0 mm/hr 0.00 in0.0 mm
06:33 PM 32.0°F0.0°C 23.7°F-4.6°C 71% 1.7 mph ESE2.7 kmh ESE 82.9 mph133.4 kmh 30.28 in1025.4 mb 0.00 in0.0 mm 0.00 in/hr0.0 mm/hr 0.00 in0.0 mm
06:32 PM 32.0°F0.0°C 23.7°F-4.6°C 71% 2.7 mph NNW4.3 kmh NNW 82.9 mph133.4 kmh 30.28 in1025.4 mb 0.00 in0.0 mm 0.00 in/hr0.0 mm/hr 0.00 in0.0 mm
06:31 PM 32.0°F0.0°C 23.7°F-4.6°C 71% 4.2 mph NNE6.8 kmh NNE 82.9 mph133.4 kmh 30.28 in1025.4 mb 0.00 in0.0 mm 0.00 in/hr0.0 mm/hr 0.00 in0.0 mm
06:30 PM 32.0°F0.0°C 23.7°F-4.6°C 71% 5.3 mph N8.5 kmh N 5.3 mph8.5 kmh 30.28 in1025.4 mb 0.00 in0.0 mm 0.00 in/hr0.0 mm/hr 0.00 in0.0 mm
06:29 PM 32.0°F0.0°C 23.7°F-4.6°C 71% 3.2 mph NW5.1 kmh NW 5.3 mph8.5 kmh 30.28 in1025.4 mb 0.00 in0.0 mm 0.00 in/hr0.0 mm/hr 0.00 in0.0 mm
06:28 PM 32.0°F0.0°C 23.7°F-4.6°C 71% 2.7 mph N4.3 kmh N 55.2 mph88.8 kmh 30.28 in1025.4 mb 0.00 in0.0 mm 0.00 in/hr0.0 mm/hr 0.00 in0.0 mm
06:27 PM 32.0°F0.0°C 23.7°F-4.6°C 71% 2.7 mph NW4.3 kmh NW 55.2 mph88.8 kmh 30.28 in1025.4 mb 0.00 in0.0 mm 0.00 in/hr0.0 mm/hr 0.00 in0.0 mm
06:26 PM 32.0°F0.0°C 23.7°F-4.6°C 71% 3.7 mph NE6.0 kmh NE 55.2 mph88.8 kmh 30.28 in1025.4 mb 0.00 in0.0 mm 0.00 in/hr0.0 mm/hr 0.00 in0.0 mm
06:25 PM 32.0°F0.0°C 23.7°F-4.6°C 71% 3.2 mph NNW5.1 kmh NNW 55.2 mph88.8 kmh 30.28 in1025.4 mb 0.00 in0.0 mm 0.00 in/hr0.0 mm/hr 0.00 in0.0 mm
06:24 PM 32.0°F0.0°C 23.7°F-4.6°C 71% 2.7 mph NNE4.3 kmh NNE 55.2 mph88.8 kmh 30.28 in1025.4 mb 0.00 in0.0 mm 0.00 in/hr0.0 mm/hr 0.00 in0.0 mm
06:23 PM 32.0°F0.0°C 23.7°F-4.6°C 71% 3.2 mph NW5.1 kmh NW 55.2 mph88.8 kmh 30.28 in1025.4 mb 0.00 in0.0 mm 0.00 in/hr0.0 mm/hr 0.00 in0.0 mm
06:22 PM 32.0°F0.0°C 23.7°F-4.6°C 71% 3.7 mph WNW6.0 kmh WNW 55.2 mph88.8 kmh 30.28 in1025.4 mb 0.00 in0.0 mm 0.00 in/hr0.0 mm/hr 0.00 in0.0 mm
06:21 PM 32.0°F0.0°C 23.7°F-4.6°C 71% 3.7 mph NW6.0 kmh NW 55.2 mph88.8 kmh 30.28 in1025.4 mb 0.00 in0.0 mm 0.00 in/hr0.0 mm/hr 0.00 in0.0 mm
06:20 PM 32.0°F0.0°C 23.7°F-4.6°C 71% 5.3 mph NW8.5 kmh NW 55.2 mph88.8 kmh 30.28 in1025.4 mb 0.00 in0.0 mm 0.00 in/hr0.0 mm/hr 0.00 in0.0 mm
06:19 PM 32.0°F0.0°C 23.7°F-4.6°C 71% 4.2 mph NNW6.8 kmh NNW 7.3 mph11.7 kmh 30.28 in1025.4 mb 0.00 in0.0 mm 0.00 in/hr0.0 mm/hr 0.00 in0.0 mm
06:18 PM 32.0°F0.0°C 23.7°F-4.6°C 71% 3.2 mph NNE5.1 kmh NNE 7.3 mph11.7 kmh 30.28 in1025.4 mb 0.00 in0.0 mm 0.00 in/hr0.0 mm/hr 0.00 in0.0 mm
06:17 PM 32.0°F0.0°C 23.7°F-4.6°C 71% 2.7 mph NNE4.3 kmh NNE 7.3 mph11.7 kmh 30.28 in1025.4 mb 0.00 in0.0 mm 0.00 in/hr0.0 mm/hr 0.00 in0.0 mm
06:16 PM 32.0°F0.0°C 23.7°F-4.6°C 71% 4.7 mph NW7.6 kmh NW 7.3 mph11.7 kmh 30.28 in1025.4 mb 0.00 in0.0 mm 0.00 in/hr0.0 mm/hr 0.00 in0.0 mm
06:15 PM 32.0°F0.0°C 23.7°F-4.6°C 71% 3.7 mph NNE6.0 kmh NNE 7.3 mph11.7 kmh 30.28 in1025.4 mb 0.00 in0.0 mm 0.00 in/hr0.0 mm/hr 0.00 in0.0 mm
06:14 PM 32.0°F0.0°C 23.7°F-4.6°C 71% 6.3 mph NNE10.1 kmh NNE 7.3 mph11.7 kmh 30.28 in1025.4 mb 0.00 in0.0 mm 0.00 in/hr0.0 mm/hr 0.00 in0.0 mm
06:13 PM 32.0°F0.0°C 23.7°F-4.6°C 71% 4.2 mph N6.8 kmh N 5.3 mph8.5 kmh 30.28 in1025.4 mb 0.00 in0.0 mm 0.00 in/hr0.0 mm/hr 0.00 in0.0 mm
06:12 PM 32.0°F0.0°C 23.7°F-4.6°C 71% 1.7 mph NW2.7 kmh NW 5.3 mph8.5 kmh 30.28 in1025.4 mb 0.00 in0.0 mm 0.00 in/hr0.0 mm/hr 0.00 in0.0 mm
06:11 PM 32.0°F0.0°C 23.7°F-4.6°C 71% 3.2 mph NNE5.1 kmh NNE 5.3 mph8.5 kmh 30.28 in1025.4 mb 0.00 in0.0 mm 0.00 in/hr0.0 mm/hr 0.00 in0.0 mm
06:10 PM 32.0°F0.0°C 23.7°F-4.6°C 71% 2.7 mph NNE4.3 kmh NNE 5.3 mph8.5 kmh 30.28 in1025.4 mb 0.00 in0.0 mm 0.00 in/hr0.0 mm/hr 0.00 in0.0 mm
06:09 PM 32.0°F0.0°C 23.7°F-4.6°C 71% 2.7 mph NNE4.3 kmh NNE 5.3 mph8.5 kmh 30.28 in1025.4 mb 0.00 in0.0 mm 0.00 in/hr0.0 mm/hr 0.00 in0.0 mm
06:08 PM 32.0°F0.0°C 23.7°F-4.6°C 71% 3.7 mph NNW6.0 kmh NNW 23.8 mph38.3 kmh 30.28 in1025.4 mb 0.00 in0.0 mm 0.00 in/hr0.0 mm/hr 0.00 in0.0 mm
06:07 PM 32.2°F0.1°C 23.9°F-4.5°C 71% 4.2 mph NNE6.8 kmh NNE 23.8 mph38.3 kmh 30.28 in1025.4 mb 0.00 in0.0 mm 0.00 in/hr0.0 mm/hr 0.00 in0.0 mm
06:06 PM 32.2°F0.1°C 23.9°F-4.5°C 71% 2.2 mph NNE3.5 kmh NNE 55.7 mph89.6 kmh 30.28 in1025.4 mb 0.00 in0.0 mm 0.00 in/hr0.0 mm/hr 0.00 in0.0 mm
06:05 PM 32.2°F0.1°C 23.9°F-4.5°C 71% 2.2 mph NNW3.5 kmh NNW 55.7 mph89.6 kmh 30.28 in1025.4 mb 0.00 in0.0 mm 0.00 in/hr0.0 mm/hr 0.00 in0.0 mm
06:04 PM 32.2°F0.1°C 23.9°F-4.5°C 71% 2.7 mph NNW4.3 kmh NNW 55.7 mph89.6 kmh 30.28 in1025.4 mb 0.00 in0.0 mm 0.00 in/hr0.0 mm/hr 0.00 in0.0 mm
06:03 PM 32.2°F0.1°C 23.9°F-4.5°C 71% 1.7 mph NW2.7 kmh NW 55.7 mph89.6 kmh 30.28 in1025.4 mb 0.00 in0.0 mm 0.00 in/hr0.0 mm/hr 0.00 in0.0 mm
06:02 PM 32.2°F0.1°C 23.9°F-4.5°C 71% 2.2 mph NNW3.5 kmh NNW 55.7 mph89.6 kmh 30.28 in1025.4 mb 0.00 in0.0 mm 0.00 in/hr0.0 mm/hr 0.00 in0.0 mm
06:01 PM 32.2°F0.1°C 23.9°F-4.5°C 71% 3.2 mph NW5.1 kmh NW 55.7 mph89.6 kmh 30.28 in1025.4 mb 0.00 in0.0 mm 0.00 in/hr0.0 mm/hr 0.00 in0.0 mm
06:00 PM 32.2°F0.1°C 23.9°F-4.5°C 71% 3.7 mph NW6.0 kmh NW 55.7 mph89.6 kmh 30.28 in1025.4 mb 0.00 in0.0 mm 0.00 in/hr0.0 mm/hr 0.00 in0.0 mm
05:59 PM 32.2°F0.1°C 23.9°F-4.5°C 71% 4.2 mph NNE6.8 kmh NNE 55.7 mph89.6 kmh 30.28 in1025.4 mb 0.00 in0.0 mm 0.00 in/hr0.0 mm/hr 0.00 in0.0 mm
05:58 PM 32.2°F0.1°C 23.9°F-4.5°C 71% 3.2 mph N5.1 kmh N 55.7 mph89.6 kmh 30.28 in1025.4 mb 0.00 in0.0 mm 0.00 in/hr0.0 mm/hr 0.00 in0.0 mm
05:57 PM 32.2°F0.1°C 23.9°F-4.5°C 71% 2.7 mph N4.3 kmh N 55.2 mph88.8 kmh 30.28 in1025.4 mb 0.00 in0.0 mm 0.00 in/hr0.0 mm/hr 0.00 in0.0 mm
05:56 PM 32.2°F0.1°C 23.9°F-4.5°C 71% 2.7 mph NNE4.3 kmh NNE 55.2 mph88.8 kmh 30.28 in1025.4 mb 0.00 in0.0 mm 0.00 in/hr0.0 mm/hr 0.00 in0.0 mm
05:55 PM 32.2°F0.1°C 23.9°F-4.5°C 71% 3.7 mph N6.0 kmh N 55.2 mph88.8 kmh 30.28 in1025.4 mb 0.00 in0.0 mm 0.00 in/hr0.0 mm/hr 0.00 in0.0 mm
05:54 PM 32.2°F0.1°C 23.9°F-4.5°C 71% 3.2 mph NNW5.1 kmh NNW 55.2 mph88.8 kmh 30.28 in1025.4 mb 0.00 in0.0 mm 0.00 in/hr0.0 mm/hr 0.00 in0.0 mm
05:53 PM 32.2°F0.1°C 23.9°F-4.5°C 71% 1.7 mph N2.7 kmh N 55.2 mph88.8 kmh 30.28 in1025.4 mb 0.00 in0.0 mm 0.00 in/hr0.0 mm/hr 0.00 in0.0 mm
05:52 PM 32.2°F0.1°C 23.9°F-4.5°C 71% 55.2 mph NW88.8 kmh NW 55.2 mph88.8 kmh 30.28 in1025.4 mb 0.00 in0.0 mm 0.00 in/hr0.0 mm/hr 0.00 in0.0 mm
05:51 PM 32.2°F0.1°C 23.9°F-4.5°C 71% 1.7 mph WNW2.7 kmh WNW 4.2 mph6.8 kmh 30.28 in1025.4 mb 0.00 in0.0 mm 0.00 in/hr0.0 mm/hr 0.00 in0.0 mm
05:50 PM 32.2°F0.1°C 23.9°F-4.5°C 71% 1.7 mph N2.7 kmh N 4.2 mph6.8 kmh 30.28 in1025.4 mb 0.00 in0.0 mm 0.00 in/hr0.0 mm/hr 0.00 in0.0 mm
05:49 PM 32.2°F0.1°C 23.9°F-4.5°C 71% 3.2 mph NNE5.1 kmh NNE 4.2 mph6.8 kmh 30.28 in1025.4 mb 0.00 in0.0 mm 0.00 in/hr0.0 mm/hr 0.00 in0.0 mm
05:48 PM 32.2°F0.1°C 23.9°F-4.5°C 71% 2.7 mph NW4.3 kmh NW 3.7 mph6.0 kmh 30.28 in1025.4 mb 0.00 in0.0 mm 0.00 in/hr0.0 mm/hr 0.00 in0.0 mm
05:47 PM 32.2°F0.1°C 23.9°F-4.5°C 71% 3.2 mph N5.1 kmh N 3.7 mph6.0 kmh 30.28 in1025.4 mb 0.00 in0.0 mm 0.00 in/hr0.0 mm/hr 0.00 in0.0 mm
05:46 PM 32.2°F0.1°C 23.9°F-4.5°C 71% 3.7 mph W6.0 kmh W 3.7 mph6.0 kmh 30.28 in1025.4 mb 0.00 in0.0 mm 0.00 in/hr0.0 mm/hr 0.00 in0.0 mm
05:45 PM 32.2°F0.1°C 23.9°F-4.5°C 71% 2.7 mph NW4.3 kmh NW 55.2 mph88.8 kmh 30.28 in1025.4 mb 0.00 in0.0 mm 0.00 in/hr0.0 mm/hr 0.00 in0.0 mm
05:44 PM 32.2°F0.1°C 23.9°F-4.5°C 71% 3.7 mph N6.0 kmh N 55.2 mph88.8 kmh 30.28 in1025.4 mb 0.00 in0.0 mm 0.00 in/hr0.0 mm/hr 0.00 in0.0 mm
05:43 PM 32.2°F0.1°C 23.9°F-4.5°C 71% 2.7 mph NNW4.3 kmh NNW 55.2 mph88.8 kmh 30.28 in1025.4 mb 0.00 in0.0 mm 0.00 in/hr0.0 mm/hr 0.00 in0.0 mm
05:42 PM 32.2°F0.1°C 23.9°F-4.5°C 71% 2.7 mph W4.3 kmh W 55.2 mph88.8 kmh 30.28 in1025.4 mb 0.00 in0.0 mm 0.00 in/hr0.0 mm/hr 0.00 in0.0 mm
05:41 PM 32.2°F0.1°C 23.9°F-4.5°C 71% 2.2 mph W3.5 kmh W 55.2 mph88.8 kmh 30.28 in1025.4 mb 0.00 in0.0 mm 0.00 in/hr0.0 mm/hr 0.00 in0.0 mm
05:40 PM 32.2°F0.1°C 23.9°F-4.5°C 71% 3.2 mph NNW5.1 kmh NNW 55.2 mph88.8 kmh 30.28 in1025.4 mb 0.00 in0.0 mm 0.00 in/hr0.0 mm/hr 0.00 in0.0 mm
05:39 PM 32.2°F0.1°C 23.9°F-4.5°C 71% 3.2 mph NNW5.1 kmh NNW 55.2 mph88.8 kmh 30.28 in1025.4 mb 0.00 in0.0 mm 0.00 in/hr0.0 mm/hr 0.00 in0.0 mm
05:38 PM 32.2°F0.1°C 23.9°F-4.5°C 71% 2.7 mph NW4.3 kmh NW 55.2 mph88.8 kmh 30.28 in1025.4 mb 0.00 in0.0 mm 0.00 in/hr0.0 mm/hr 0.00 in0.0 mm
05:37 PM 32.2°F0.1°C 23.9°F-4.5°C 71% 1.1 mph NNW1.8 kmh NNW 55.2 mph88.8 kmh 30.28 in1025.4 mb 0.00 in0.0 mm 0.00 in/hr0.0 mm/hr 0.00 in0.0 mm
05:36 PM 32.2°F0.1°C 23.9°F-4.5°C 71% Calm Calm 55.2 mph88.8 kmh 30.28 in1025.4 mb 0.00 in0.0 mm 0.00 in/hr0.0 mm/hr 0.00 in0.0 mm
05:35 PM 32.2°F0.1°C 23.9°F-4.5°C 71% 55.2 mph N88.8 kmh N 55.2 mph88.8 kmh 30.28 in1025.4 mb 0.00 in0.0 mm 0.00 in/hr0.0 mm/hr 0.00 in0.0 mm
05:34 PM 32.2°F0.1°C 23.9°F-4.5°C 71% 2.2 mph N3.5 kmh N 3.2 mph5.1 kmh 30.28 in1025.4 mb 0.00 in0.0 mm 0.00 in/hr0.0 mm/hr 0.00 in0.0 mm
05:33 PM 32.2°F0.1°C 23.9°F-4.5°C 71% 1.7 mph W2.7 kmh W 3.2 mph5.1 kmh 30.28 in1025.4 mb 0.00 in0.0 mm 0.00 in/hr0.0 mm/hr 0.00 in0.0 mm
05:32 PM 32.2°F0.1°C 23.9°F-4.5°C 71% 1.1 mph WNW1.8 kmh WNW 3.2 mph5.1 kmh 30.28 in1025.4 mb 0.00 in0.0 mm 0.00 in/hr0.0 mm/hr 0.00 in0.0 mm
05:31 PM 32.2°F0.1°C 23.9°F-4.5°C 71% 1.7 mph NNW2.7 kmh NNW 3.7 mph6.0 kmh 30.28 in1025.4 mb 0.00 in0.0 mm 0.00 in/hr0.0 mm/hr 0.00 in0.0 mm
05:30 PM 32.2°F0.1°C 23.9°F-4.5°C 71% 2.7 mph NNW4.3 kmh NNW 3.7 mph6.0 kmh 30.28 in1025.4 mb 0.00 in0.0 mm 0.00 in/hr0.0 mm/hr 0.00 in0.0 mm
05:29 PM 32.2°F0.1°C 23.9°F-4.5°C 71% 3.2 mph NNW5.1 kmh NNW 3.7 mph6.0 kmh 30.28 in1025.4 mb 0.00 in0.0 mm 0.00 in/hr0.0 mm/hr 0.00 in0.0 mm
05:28 PM 32.2°F0.1°C 23.9°F-4.5°C 71% 1.7 mph NW2.7 kmh NW 3.7 mph6.0 kmh 30.28 in1025.4 mb 0.00 in0.0 mm 0.00 in/hr0.0 mm/hr 0.00 in0.0 mm
05:27 PM 32.2°F0.1°C 23.9°F-4.5°C 71% 2.2 mph NE3.5 kmh NE 3.7 mph6.0 kmh 30.28 in1025.4 mb 0.00 in0.0 mm 0.00 in/hr0.0 mm/hr 0.00 in0.0 mm
05:26 PM 32.2°F0.1°C 23.9°F-4.5°C 71% 2.2 mph N3.5 kmh N 3.7 mph6.0 kmh 30.28 in1025.4 mb 0.00 in0.0 mm 0.00 in/hr0.0 mm/hr 0.00 in0.0 mm
05:25 PM 32.2°F0.1°C 23.9°F-4.5°C 71% 2.7 mph NNW4.3 kmh NNW 3.7 mph6.0 kmh 30.27 in1025.1 mb 0.00 in0.0 mm 0.00 in/hr0.0 mm/hr 0.00 in0.0 mm
05:24 PM 32.2°F0.1°C 23.9°F-4.5°C 71% 1.7 mph WNW2.7 kmh WNW 3.7 mph6.0 kmh 30.27 in1025.1 mb 0.00 in0.0 mm 0.00 in/hr0.0 mm/hr 0.00 in0.0 mm
05:23 PM 32.2°F0.1°C 23.9°F-4.5°C 71% 1.7 mph NE2.7 kmh NE 55.2 mph88.8 kmh 30.27 in1025.1 mb 0.00 in0.0 mm 0.00 in/hr0.0 mm/hr 0.00 in0.0 mm
05:22 PM 32.2°F0.1°C 23.9°F-4.5°C 71% 3.2 mph NW5.1 kmh NW 55.2 mph88.8 kmh 30.27 in1025.1 mb 0.00 in0.0 mm 0.00 in/hr0.0 mm/hr 0.00 in0.0 mm
05:21 PM 32.2°F0.1°C 23.9°F-4.5°C 71% 2.2 mph N3.5 kmh N 55.2 mph88.8 kmh 30.27 in1025.1 mb 0.00 in0.0 mm 0.00 in/hr0.0 mm/hr 0.00 in0.0 mm
05:20 PM 32.4°F0.2°C 24.1°F-4.4°C 71% 2.7 mph NW4.3 kmh NW 92.2 mph148.4 kmh 30.27 in1025.1 mb 0.00 in0.0 mm 0.00 in/hr0.0 mm/hr 0.00 in0.0 mm
05:19 PM 32.4°F0.2°C 23.7°F-4.6°C 70% 2.2 mph W3.5 kmh W 92.2 mph148.4 kmh 30.27 in1025.1 mb 0.00 in0.0 mm 0.00 in/hr0.0 mm/hr 0.00 in0.0 mm
05:18 PM 32.4°F0.2°C 23.7°F-4.6°C 70% 2.7 mph NE4.3 kmh NE 92.2 mph148.4 kmh 30.27 in1025.1 mb 0.00 in0.0 mm 0.00 in/hr0.0 mm/hr 0.00 in0.0 mm
05:17 PM 32.4°F0.2°C 23.7°F-4.6°C 70% 2.2 mph NNW3.5 kmh NNW 92.2 mph148.4 kmh 30.27 in1025.1 mb 0.00 in0.0 mm 0.00 in/hr0.0 mm/hr 0.00 in0.0 mm
05:16 PM 32.4°F0.2°C 23.7°F-4.6°C 70% 3.7 mph N6.0 kmh N 92.2 mph148.4 kmh 30.27 in1025.1 mb 0.00 in0.0 mm 0.00 in/hr0.0 mm/hr 0.00 in0.0 mm
05:15 PM 32.4°F0.2°C 23.7°F-4.6°C 70% 3.7 mph NNW6.0 kmh NNW 92.2 mph148.4 kmh 30.27 in1025.1 mb 0.00 in0.0 mm 0.00 in/hr0.0 mm/hr 0.00 in0.0 mm
05:14 PM 32.4°F0.2°C 23.7°F-4.6°C 70% 55.2 mph NE88.8 kmh NE 92.2 mph148.4 kmh 30.27 in1025.1 mb 0.00 in0.0 mm 0.00 in/hr0.0 mm/hr 0.00 in0.0 mm
05:13 PM 32.4°F0.2°C 23.7°F-4.6°C 70% 3.2 mph NNE5.1 kmh NNE 92.2 mph148.4 kmh 30.27 in1025.1 mb 0.00 in0.0 mm 0.00 in/hr0.0 mm/hr 0.00 in0.0 mm
05:12 PM 32.4°F0.2°C 23.7°F-4.6°C 70% 2.7 mph NE4.3 kmh NE 92.2 mph148.4 kmh 30.27 in1025.1 mb 0.00 in0.0 mm 0.00 in/hr0.0 mm/hr 0.00 in0.0 mm
05:11 PM 32.4°F0.2°C 23.7°F-4.6°C 70% 92.2 mph N148.4 kmh N 92.2 mph148.4 kmh 30.27 in1025.1 mb 0.00 in0.0 mm 0.00 in/hr0.0 mm/hr 0.00 in0.0 mm
05:10 PM 32.4°F0.2°C 23.7°F-4.6°C 70% 4.7 mph N7.6 kmh N 5.3 mph8.5 kmh 30.27 in1025.1 mb 0.00 in0.0 mm 0.00 in/hr0.0 mm/hr 0.00 in0.0 mm
05:09 PM 32.4°F0.2°C 23.7°F-4.6°C 70% 5.3 mph NNE8.5 kmh NNE 5.3 mph8.5 kmh 30.27 in1025.1 mb 0.00 in0.0 mm 0.00 in/hr0.0 mm/hr 0.00 in0.0 mm
05:08 PM 32.4°F0.2°C 23.7°F-4.6°C 70% 1.7 mph NW2.7 kmh NW 4.7 mph7.6 kmh 30.27 in1025.1 mb 0.00 in0.0 mm 0.00 in/hr0.0 mm/hr 0.00 in0.0 mm
05:07 PM 32.4°F0.2°C 23.7°F-4.6°C 70% 2.2 mph W3.5 kmh W 4.7 mph7.6 kmh 30.27 in1025.1 mb 0.00 in0.0 mm 0.00 in/hr0.0 mm/hr 0.00 in0.0 mm
05:06 PM 32.4°F0.2°C 23.7°F-4.6°C 70% 2.7 mph N4.3 kmh N 4.7 mph7.6 kmh 30.27 in1025.1 mb 0.00 in0.0 mm 0.00 in/hr0.0 mm/hr 0.00 in0.0 mm
05:05 PM 32.4°F0.2°C 23.7°F-4.6°C 70% 3.2 mph NNE5.1 kmh NNE 3.7 mph6.0 kmh 30.27 in1025.1 mb 0.00 in0.0 mm 0.00 in/hr0.0 mm/hr 0.00 in0.0 mm
05:04 PM 32.4°F0.2°C 23.7°F-4.6°C 70% Calm Calm 2.2 mph3.5 kmh 30.27 in1025.1 mb 0.00 in0.0 mm 0.00 in/hr0.0 mm/hr 0.00 in0.0 mm
05:03 PM 32.4°F0.2°C 23.7°F-4.6°C 70% Calm Calm 2.2 mph3.5 kmh 30.27 in1025.1 mb 0.00 in0.0 mm 0.00 in/hr0.0 mm/hr 0.00 in0.0 mm
05:02 PM 32.4°F0.2°C 23.7°F-4.6°C 70% 2.2 mph NW3.5 kmh NW 2.2 mph3.5 kmh 30.27 in1025.1 mb 0.00 in0.0 mm 0.00 in/hr0.0 mm/hr 0.00 in0.0 mm
05:01 PM 32.4°F0.2°C 23.7°F-4.6°C 70% Calm Calm -- 30.27 in1025.1 mb 0.00 in0.0 mm 0.00 in/hr0.0 mm/hr 0.00 in0.0 mm